Time;durP1;ratioP1;P1;durP2;ratioP2;P2;SDS_P1;SDS_P2;PMS_P1;PMS_P2;Temp;Humidity;BMP_temperature;BMP_pressure;BME280_temperature;BME280_humidity;BME280_pressure;Samples;Min_cycle;Max_cycle;Signal;HPM_P1;HPM_P2
2022/01/24 00:00:05;;;;;;;45.78;21.25;;;25.80;1536.00;;;;;;5053475;28;20528;-58
2022/01/24 00:02:31;;;;;;;119.72;51.28;;;25.80;1536.00;;;;;;5053774;28;20036;-58
2022/01/24 00:04:57;;;;;;;108.63;48.92;;;25.80;1536.00;;;;;;5053910;28;20371;-57
2022/01/24 00:07:24;;;;;;;101.05;43.80;;;25.70;1536.00;;;;;;5053830;28;20036;-57
2022/01/24 00:09:53;;;;;;;75.13;34.15;;;25.70;1536.00;;;;;;5053805;28;20051;-57
2022/01/24 00:12:54;;;;;;;46.70;22.15;;;25.70;1510.40;;;;;;5053031;28;20029;-58
2022/01/24 00:17:46;;;;;;;30.83;15.98;;;25.60;1561.60;;;;;;5053671;28;20112;-58
2022/01/24 00:28:28;;;;;;;28.70;14.30;;;25.60;1536.00;;;;;;5053509;28;20071;-58
2022/01/24 00:30:54;;;;;;;26.98;13.73;;;0.90;1561.60;;;;;;5053464;28;20104;-58
2022/01/24 00:33:20;;;;;;;27.75;13.40;;;0.90;1536.00;;;;;;5053538;28;20029;-58
2022/01/24 00:35:47;;;;;;;32.63;13.65;;;25.60;1536.00;;;;;;5053229;28;20502;-58
2022/01/24 00:38:13;;;;;;;33.70;14.77;;;25.60;1536.00;;;;;;5053334;28;20493;-58
2022/01/24 00:40:40;;;;;;;24.45;11.10;;;25.60;1536.00;;;;;;5053430;28;20052;-58
2022/01/24 00:43:19;;;;;;;20.33;9.93;;;0.90;1536.00;;;;;;5053491;28;20029;-58
2022/01/24 00:54:03;;;;;;;14.70;7.70;;;0.90;1536.00;;;;;;5053234;28;20429;-57
2022/01/24 00:56:29;;;;;;;;;;;0.90;1536.00;;;;;;5054288;28;20025;-58
2022/01/24 00:58:55;;;;;;;14.27;6.90;;;0.90;1536.00;;;;;;5052836;28;20293;-58
2022/01/24 01:01:20;;;;;;;12.73;6.78;;;0.90;1536.00;;;;;;5053240;28;20029;-58
2022/01/24 01:03:46;;;;;;;16.25;8.75;;;0.90;1536.00;;;;;;5052619;28;20446;-58
2022/01/24 01:06:13;;;;;;;15.57;8.00;;;0.90;1536.00;;;;;;5052999;28;20433;-58
2022/01/24 01:19:39;;;;;;;42.63;16.33;;;0.90;1561.60;;;;;;5053125;28;20031;-58
2022/01/24 01:22:04;;;;;;;43.42;18.00;;;0.80;1536.00;;;;;;5053142;28;20045;-58
2022/01/24 01:24:34;;;;;;;52.80;22.42;;;0.80;1536.00;;;;;;5056965;28;20055;-58
2022/01/24 01:27:06;;;;;;;45.63;17.90;;;0.80;1536.00;;;;;;5056485;28;20394;-58
2022/01/24 01:29:46;;;;;;;20.98;9.95;;;0.90;1536.00;;;;;;5056451;28;20051;-58
2022/01/24 01:32:27;;;;;;;36.00;15.27;;;0.90;1510.40;;;;;;5055455;28;20390;-57
2022/01/24 01:56:42;;;;;;;22.42;10.18;;;0.80;1536.00;;;;;;5034313;28;20561;-58
2022/01/24 01:59:08;;;;;;;22.15;9.27;;;0.80;1536.00;;;;;;5033738;28;20046;-57
2022/01/24 02:01:34;;;;;;;19.88;9.80;;;0.80;1510.40;;;;;;5034379;28;20128;-58
2022/01/24 02:04:02;;;;;;;13.57;7.35;;;0.80;1536.00;;;;;;5033807;28;20032;-58
2022/01/24 02:06:29;;;;;;;13.80;7.47;;;0.70;1536.00;;;;;;5033898;28;20029;-58
2022/01/24 02:09:05;;;;;;;14.43;7.57;;;0.80;1536.00;;;;;;5033983;28;20506;-58
2022/01/24 02:11:31;;;;;;;12.57;6.97;;;0.70;1536.00;;;;;;5033824;28;20087;-58
2022/01/24 02:14:02;;;;;;;12.38;6.15;;;0.80;1536.00;;;;;;5042446;28;20032;-58
2022/01/24 02:16:47;;;;;;;16.83;7.72;;;0.80;1536.00;;;;;;5055860;28;20024;-58
2022/01/24 02:19:24;;;;;;;20.60;8.60;;;0.70;1536.00;;;;;;5055845;28;20108;-57
2022/01/24 02:24:39;;;;;;;12.10;5.90;;;0.70;1536.00;;;;;;5055934;28;20029;-58
2022/01/24 02:27:06;;;;;;;17.83;8.18;;;0.70;1536.00;;;;;;5055559;28;20041;-58
2022/01/24 02:32:16;;;;;;;12.80;7.07;;;0.70;1536.00;;;;;;5055524;28;20082;-57
2022/01/24 02:34:45;;;;;;;14.55;7.30;;;0.60;1510.40;;;;;;5054681;28;20024;-57
2022/01/24 02:37:16;;;;;;;11.50;6.35;;;0.50;1561.60;;;;;;5055531;28;20033;-57
2022/01/24 02:50:29;;;;;;;12.13;6.53;;;0.50;1536.00;;;;;;5055341;28;20032;-58
2022/01/24 02:52:55;;;;;;;12.02;6.13;;;0.50;1536.00;;;;;;5055371;28;20375;-58
2022/01/24 02:55:21;;;;;;;11.30;5.97;;;0.60;1536.00;;;;;;5055071;28;20021;-58
2022/01/24 02:57:46;;;;;;;11.82;6.28;;;0.60;1536.00;;;;;;5054940;28;20056;-58
2022/01/24 03:00:13;;;;;;;11.18;6.05;;;0.50;1561.60;;;;;;5054560;28;20139;-58
2022/01/24 03:02:38;;;;;;;12.13;6.25;;;0.50;1536.00;;;;;;5055327;28;20036;-58
2022/01/24 03:05:04;;;;;;;11.38;6.28;;;0.50;1536.00;;;;;;5055422;28;20025;-57
2022/01/24 03:07:32;;;;;;;12.02;5.78;;;0.40;1536.00;;;;;;5054435;28;20029;-57
2022/01/24 03:09:57;;;;;;;9.50;5.22;;;0.40;1536.00;;;;;;5054687;28;20104;-58
2022/01/24 03:12:42;;;;;;;11.02;6.07;;;0.40;1536.00;;;;;;5055139;28;20103;-57
2022/01/24 03:15:09;;;;;;;11.43;6.22;;;0.40;1536.00;;;;;;5054397;28;20021;-57
2022/01/24 03:17:35;;;;;;;9.93;5.55;;;0.40;1536.00;;;;;;5054777;28;20021;-57
2022/01/24 03:20:00;;;;;;;9.70;5.63;;;0.40;1561.60;;;;;;5054879;28;20159;-57
2022/01/24 03:22:26;;;;;;;12.48;6.30;;;0.40;1536.00;;;;;;5054761;28;20028;-57
2022/01/24 03:24:52;;;;;;;11.73;5.93;;;0.40;1561.60;;;;;;5054843;28;20024;-58
2022/01/24 03:27:17;;;;;;;10.80;5.85;;;0.30;1561.60;;;;;;5054360;28;20033;-58
2022/01/24 03:29:43;;;;;;;13.02;6.22;;;0.30;1536.00;;;;;;5054344;28;20478;-58
2022/01/24 03:32:09;;;;;;;12.20;6.45;;;0.30;1536.00;;;;;;5054401;28;20025;-57
2022/01/24 03:34:35;;;;;;;10.90;6.00;;;0.40;1561.60;;;;;;5054233;28;20017;-58
2022/01/24 03:37:00;;;;;;;12.80;7.28;;;0.40;1536.00;;;;;;5054353;28;20027;-57
2022/01/24 03:39:26;;;;;;;13.77;6.93;;;0.40;1536.00;;;;;;5054262;28;20435;-57
2022/01/24 03:41:52;;;;;;;14.02;7.03;;;0.40;1536.00;;;;;;5054168;28;20036;-57
2022/01/24 03:44:19;;;;;;;13.35;6.65;;;0.40;1536.00;;;;;;5053998;28;20066;-57
2022/01/24 03:47:29;;;;;;;12.63;6.80;;;0.30;1510.40;;;;;;5054029;28;20045;-57
2022/01/24 03:49:45;;;;;;;15.35;7.53;;;0.30;1536.00;;;;;;5053775;28;20032;-58
2022/01/24 03:52:15;;;;;;;14.55;7.28;;;0.20;1536.00;;;;;;5054012;28;20060;-58
2022/01/24 03:54:44;;;;;;;15.45;7.57;;;0.10;1536.00;;;;;;5053957;28;20045;-58
2022/01/24 03:57:15;;;;;;;17.60;8.75;;;0.10;1536.00;;;;;;5053773;28;20490;-58
2022/01/24 03:59:41;;;;;;;18.55;8.32;;;0.10;1561.60;;;;;;5053578;28;20110;-57
2022/01/24 04:02:08;;;;;;;16.50;7.88;;;0.10;1536.00;;;;;;5053856;28;20025;-58
2022/01/24 04:04:35;;;;;;;17.38;7.63;;;0.10;1536.00;;;;;;5054098;28;20029;-59
2022/01/24 04:07:00;;;;;;;23.27;7.78;;;0.00;1536.00;;;;;;5053635;28;20060;-57
2022/01/24 04:09:26;;;;;;;18.13;8.63;;;0.00;1561.60;;;;;;5053458;28;20072;-58
2022/01/24 04:11:55;;;;;;;38.03;13.93;;;0.00;1561.60;;;;;;5053562;28;20032;-57
2022/01/24 04:15:09;;;;;;;30.20;12.98;;;0.00;1561.60;;;;;;5053484;28;20494;-58
2022/01/24 04:22:31;;;;;;;25.92;12.10;;;12.90;1536.00;;;;;;5053633;28;20463;-58
2022/01/24 04:25:03;;;;;;;33.92;14.02;;;12.90;1561.60;;;;;;5053471;28;20037;-58
2022/01/24 04:27:29;;;;;;;35.17;14.00;;;12.90;1536.00;;;;;;5053634;28;20052;-58
2022/01/24 04:29:56;;;;;;;28.92;13.32;;;13.00;1536.00;;;;;;5053355;28;20092;-58
2022/01/24 04:32:22;;;;;;;23.70;10.98;;;13.00;1536.00;;;;;;5053424;28;20108;-58
2022/01/24 04:34:48;;;;;;;25.50;11.30;;;13.00;1561.60;;;;;;5053439;28;20093;-58
2022/01/24 04:37:15;;;;;;;25.67;11.45;;;13.00;1536.00;;;;;;5053485;28;20071;-58
2022/01/24 04:39:42;;;;;;;27.85;12.35;;;13.00;1536.00;;;;;;5053324;28;20411;-58
2022/01/24 04:42:13;;;;;;;26.13;13.43;;;13.00;1561.60;;;;;;5053220;28;20037;-58
2022/01/24 04:44:55;;;;;;;28.65;13.52;;;13.00;1561.60;;;;;;5053196;28;20032;-58
2022/01/24 04:47:31;;;;;;;34.30;15.90;;;13.00;1536.00;;;;;;5053365;28;20037;-58
2022/01/24 04:52:51;;;;;;;34.25;16.48;;;13.10;1561.60;;;;;;5053079;28;20040;-58
2022/01/24 04:55:17;;;;;;;29.35;14.07;;;13.10;1536.00;;;;;;5053357;28;20037;-58
2022/01/24 04:57:46;;;;;;;44.67;20.98;;;13.10;1536.00;;;;;;5054517;28;20032;-58
2022/01/24 05:00:13;;;;;;;43.15;18.88;;;13.30;1536.00;;;;;;5056836;28;20053;-58
2022/01/24 05:02:39;;;;;;;44.58;19.80;;;13.30;1536.00;;;;;;5057147;28;20115;-58
2022/01/24 05:05:06;;;;;;;33.22;16.30;;;13.30;1510.40;;;;;;5057099;28;20041;-58
2022/01/24 05:07:32;;;;;;;35.30;14.30;;;13.50;1510.40;;;;;;5056923;28;20076;-58
2022/01/24 05:10:10;;;;;;;33.83;16.85;;;13.50;1510.40;;;;;;5057182;28;20053;-58
2022/01/24 05:25:59;;;;;;;45.83;20.52;;;38.40;1536.00;;;;;;5056793;28;20471;-58
2022/01/24 05:28:26;;;;;;;43.60;19.90;;;38.40;1510.40;;;;;;5056527;28;20037;-58
2022/01/24 05:30:52;;;;;;;41.78;20.40;;;38.40;1484.80;;;;;;5056442;28;20021;-58
2022/01/24 05:33:18;;;;;;;43.65;20.15;;;38.50;1484.80;;;;;;5056578;28;20039;-58
2022/01/24 05:35:44;;;;;;;34.40;18.35;;;38.50;1484.80;;;;;;5056368;28;20481;-58
2022/01/24 05:38:10;;;;;;;33.70;17.35;;;38.60;1510.40;;;;;;5056558;28;20025;-58
2022/01/24 05:40:39;;;;;;;32.50;16.27;;;38.60;1561.60;;;;;;5055865;28;20033;-58
2022/01/24 05:43:07;;;;;;;30.45;14.55;;;38.60;1536.00;;;;;;5056526;28;20029;-58
2022/01/24 05:45:33;;;;;;;32.38;15.73;;;38.60;1510.40;;;;;;5056466;28;20108;-58
2022/01/24 05:47:59;;;;;;;39.78;18.40;;;38.60;1484.80;;;;;;5056186;28;20043;-58
2022/01/24 05:50:25;;;;;;;41.38;19.25;;;38.60;1484.80;;;;;;5056653;28;20035;-58
2022/01/24 05:52:51;;;;;;;41.78;18.83;;;38.80;1536.00;;;;;;5056190;28;20108;-58
2022/01/24 05:55:17;;;;;;;45.25;20.45;;;38.80;1587.20;;;;;;5056218;28;20560;-58
2022/01/24 05:57:43;;;;;;;48.50;21.35;;;38.60;1536.00;;;;;;5056005;28;20033;-58
2022/01/24 06:00:11;;;;;;;45.42;21.10;;;38.60;1484.80;;;;;;5055608;28;20529;-58
2022/01/24 06:02:37;;;;;;;41.00;20.63;;;38.70;1484.80;;;;;;5056095;28;20387;-58
2022/01/24 06:05:04;;;;;;;59.70;23.92;;;38.80;1484.80;;;;;;5056091;28;20324;-58
2022/01/24 06:07:29;;;;;;;53.75;23.10;;;39.20;1510.40;;;;;;5055997;28;20033;-58
2022/01/24 06:09:55;;;;;;;56.80;25.38;;;64.10;1536.00;;;;;;5054718;28;20032;-58
2022/01/24 06:12:21;;;;;;;83.53;33.95;;;64.40;1561.60;;;;;;5055954;28;20029;-58
2022/01/24 06:14:47;;;;;;;84.03;37.88;;;64.60;1612.80;;;;;;5055586;28;20156;-58
2022/01/24 06:17:12;;;;;;;77.43;35.08;;;64.50;1715.20;;;;;;5055913;28;20032;-58
2022/01/24 06:19:38;;;;;;;70.97;30.55;;;64.30;1843.20;;;;;;5055230;28;20025;-58
2022/01/24 06:22:04;;;;;;;58.95;26.77;;;64.00;1868.80;;;;;;5055734;28;20035;-57
2022/01/24 06:24:30;;;;;;;53.90;22.95;;;64.00;1843.20;;;;;;5055554;28;20052;-58
2022/01/24 06:26:55;;;;;;;44.40;21.42;;;39.30;1740.80;;;;;;5055757;28;20076;-58
2022/01/24 06:29:21;;;;;;;46.60;20.33;;;39.20;1689.60;;;;;;5055417;28;20055;-58
2022/01/24 06:31:47;;;;;;;42.03;20.65;;;39.20;1664.00;;;;;;5055989;28;20121;-58
2022/01/24 06:34:13;;;;;;;43.88;20.77;;;39.10;1638.40;;;;;;5054289;28;20463;-58
2022/01/24 06:36:38;;;;;;;53.65;22.33;;;39.10;1638.40;;;;;;5055678;28;20052;-58
2022/01/24 06:39:06;;;;;;;51.63;23.20;;;39.20;1612.80;;;;;;5055399;28;20063;-57
2022/01/24 06:41:34;;;;;;;60.65;24.52;;;39.20;1638.40;;;;;;5055562;28;20087;-58
2022/01/24 06:44:01;;;;;;;49.35;23.50;;;39.20;1664.00;;;;;;5054015;28;20070;-58
2022/01/24 06:46:27;;;;;;;56.50;25.23;;;39.10;1638.40;;;;;;5055294;28;20039;-57
2022/01/24 06:48:52;;;;;;;46.03;22.48;;;39.10;1612.80;;;;;;5055323;28;20025;-58
2022/01/24 06:51:19;;;;;;;46.25;22.20;;;39.10;1612.80;;;;;;5055351;28;20024;-57
2022/01/24 06:53:46;;;;;;;46.10;22.00;;;39.10;1638.40;;;;;;5055315;28;20048;-57
2022/01/24 06:56:12;;;;;;;52.72;26.92;;;39.00;1638.40;;;;;;5055138;28;20029;-57
2022/01/24 06:58:38;;;;;;;48.40;25.65;;;39.10;1587.20;;;;;;5054892;28;20044;-58
2022/01/24 07:01:04;;;;;;;50.40;23.85;;;39.10;1587.20;;;;;;5055042;28;20360;-57
2022/01/24 07:03:29;;;;;;;51.63;25.13;;;39.10;1561.60;;;;;;5054826;28;20025;-57
2022/01/24 07:05:55;;;;;;;51.38;24.30;;;39.10;1561.60;;;;;;5054648;28;20040;-58
2022/01/24 07:08:21;;;;;;;73.53;35.13;;;39.10;1587.20;;;;;;5054576;28;20029;-57
2022/01/24 07:10:47;;;;;;;62.08;31.77;;;39.20;1638.40;;;;;;5054847;28;20461;-57
2022/01/24 07:13:13;;;;;;;63.80;30.35;;;39.10;1612.80;;;;;;5055025;28;20025;-57
2022/01/24 07:15:51;;;;;;;69.05;32.72;;;39.00;1561.60;;;;;;5054554;28;20021;-57
2022/01/24 07:20:43;;;;;;;64.88;28.95;;;39.00;1510.40;;;;;;5054658;28;20020;-57
2022/01/24 07:23:08;;;;;;;66.03;31.15;;;39.00;1536.00;;;;;;5054294;28;20028;-57
2022/01/24 07:25:34;;;;;;;88.63;38.10;;;39.10;1536.00;;;;;;5059583;28;20016;-57
2022/01/24 07:28:00;;;;;;;74.03;33.88;;;39.30;1612.80;;;;;;5064659;28;20499;-58
2022/01/24 07:30:25;;;;;;;126.95;56.38;;;39.20;1638.40;;;;;;5064800;28;20024;-59
2022/01/24 07:32:51;;;;;;;155.40;69.43;;;39.20;1612.80;;;;;;5074393;28;20025;-61
2022/01/24 07:35:17;;;;;;;153.88;67.63;;;39.30;1638.40;;;;;;5074258;28;20077;-65
2022/01/24 07:37:43;;;;;;;367.55;134.00;;;39.20;1971.20;;;;;;5074230;28;20025;-60
2022/01/24 07:40:10;;;;;;;203.05;86.78;;;38.60;2150.40;;;;;;5074179;28;20046;-60
2022/01/24 07:45:18;;;;;;;108.18;47.28;;;0.10;2099.20;;;;;;5063244;28;20033;-66
2022/01/24 07:47:43;;;;;;;160.43;64.35;;;0.60;1894.40;;;;;;5053852;28;20036;-61
2022/01/24 07:50:09;;;;;;;140.75;59.38;;;0.90;1664.00;;;;;;5067688;28;20043;-59
2022/01/24 07:52:36;;;;;;;173.27;75.65;;;0.50;1510.40;;;;;;5070741;28;20060;-60
2022/01/24 07:55:03;;;;;;;118.88;54.72;;;0.00;1510.40;;;;;;5071147;28;20458;-60
2022/01/24 07:57:28;;;;;;;156.98;66.60;;;13.10;1510.40;;;;;;5053807;28;20039;-60
2022/01/24 07:59:54;;;;;;;181.10;73.78;;;13.40;1536.00;;;;;;5060662;28;20045;-59
2022/01/24 08:02:20;;;;;;;155.10;66.47;;;13.60;1561.60;;;;;;5064122;28;20031;-59
2022/01/24 08:04:46;;;;;;;145.45;62.42;;;13.70;1561.60;;;;;;5062623;28;20017;-60
2022/01/24 08:07:11;;;;;;;115.03;51.38;;;38.40;1587.20;;;;;;5063067;28;20394;-59
2022/01/24 08:09:37;;;;;;;98.15;42.25;;;38.40;1587.20;;;;;;5064202;28;21366;-60
2022/01/24 08:12:05;;;;;;;81.35;37.70;;;38.50;1587.20;;;;;;5059516;28;20062;-60
2022/01/24 08:14:31;;;;;;;92.32;38.50;;;38.50;1587.20;;;;;;5063084;28;20021;-60
2022/01/24 08:16:56;;;;;;;80.43;35.80;;;38.60;1587.20;;;;;;5063840;28;20025;-60
2022/01/24 08:19:22;;;;;;;89.00;39.50;;;38.70;1587.20;;;;;;5066754;28;20028;-60
2022/01/24 08:21:48;;;;;;;80.25;37.75;;;38.80;1612.80;;;;;;5060942;28;20029;-60
2022/01/24 08:24:14;;;;;;;67.95;33.58;;;38.80;1587.20;;;;;;5062348;28;20024;-59
2022/01/24 08:26:40;;;;;;;242.45;77.20;;;38.80;1612.80;;;;;;5064197;28;20025;-60
2022/01/24 08:29:06;;;;;;;316.13;99.82;;;38.80;1612.80;;;;;;5073552;28;20029;-60
2022/01/24 08:31:32;;;;;;;190.60;70.72;;;38.70;1587.20;;;;;;5073627;28;20028;-59
2022/01/24 08:33:58;;;;;;;183.20;76.68;;;38.70;1612.80;;;;;;5062614;28;20417;-59
2022/01/24 08:36:24;;;;;;;115.20;52.92;;;38.70;1638.40;;;;;;5063768;28;20032;-60
2022/01/24 08:38:51;;;;;;;83.25;38.63;;;38.60;1664.00;;;;;;5064672;28;20016;-60
2022/01/24 08:41:28;;;;;;;52.25;27.40;;;38.60;1612.80;;;;;;5073202;28;20161;-59
2022/01/24 08:44:16;;;;;;;57.70;26.92;;;38.60;1587.20;;;;;;5073325;28;20039;-60
2022/01/24 08:46:43;;;;;;;46.10;23.20;;;38.60;1587.20;;;;;;5072816;28;20397;-60
2022/01/24 08:49:09;;;;;;;53.25;24.92;;;38.60;1664.00;;;;;;5073484;28;20024;-60
2022/01/24 08:51:35;;;;;;;60.03;24.95;;;38.60;1638.40;;;;;;5073968;28;20378;-60
2022/01/24 08:54:00;;;;;;;57.10;25.05;;;38.50;1612.80;;;;;;5066939;28;20022;-60
2022/01/24 08:56:28;;;;;;;55.67;24.88;;;38.50;1612.80;;;;;;5063370;28;20025;-60
2022/01/24 08:58:53;;;;;;;49.35;24.30;;;38.50;1612.80;;;;;;5053037;28;20471;-60
2022/01/24 09:01:19;;;;;;;45.25;23.48;;;38.50;1638.40;;;;;;5053622;28;20041;-60
2022/01/24 09:03:45;;;;;;;48.67;22.05;;;38.40;1664.00;;;;;;5053048;28;20079;-60
2022/01/24 09:06:11;;;;;;;44.22;22.13;;;13.70;1817.60;;;;;;5056373;28;20053;-59
2022/01/24 09:08:37;;;;;;;52.80;24.27;;;13.60;1792.00;;;;;;5066870;28;20037;-60
2022/01/24 09:11:04;;;;;;;48.67;24.30;;;13.50;1689.60;;;;;;5072795;28;20033;-59
2022/01/24 09:13:30;;;;;;;46.83;22.67;;;13.50;1664.00;;;;;;5067683;28;20065;-59
2022/01/24 09:15:57;;;;;;;52.85;26.33;;;13.40;1638.40;;;;;;5060876;28;20029;-60
2022/01/24 09:18:23;;;;;;;53.03;26.27;;;13.30;1664.00;;;;;;5058190;28;20121;-59
2022/01/24 09:20:50;;;;;;;59.85;29.83;;;13.20;1689.60;;;;;;5052954;28;20048;-60
2022/01/24 09:23:17;;;;;;;59.05;29.63;;;13.20;1664.00;;;;;;5054269;28;20056;-60
2022/01/24 09:25:43;;;;;;;58.35;28.58;;;13.20;1638.40;;;;;;5066998;28;20048;-60
2022/01/24 09:28:09;;;;;;;54.00;26.17;;;13.10;1689.60;;;;;;5073097;28;20070;-60
2022/01/24 09:30:34;;;;;;;98.75;42.53;;;13.00;1664.00;;;;;;5072890;28;20025;-60
2022/01/24 09:33:01;;;;;;;71.78;33.67;;;13.00;1638.40;;;;;;5072485;28;20025;-60
2022/01/24 09:35:28;;;;;;;153.48;57.70;;;13.00;1638.40;;;;;;5072881;28;20029;-60
2022/01/24 09:37:54;;;;;;;264.92;98.68;;;0.00;1664.00;;;;;;5072995;28;20028;-60
2022/01/24 09:40:20;;;;;;;279.83;106.95;;;0.10;1638.40;;;;;;5072608;28;20073;-60
2022/01/24 09:42:47;;;;;;;235.25;96.68;;;0.20;1612.80;;;;;;5072919;28;20382;-60
2022/01/24 09:45:15;;;;;;;247.77;95.22;;;0.30;1612.80;;;;;;5076104;28;20029;-60
2022/01/24 09:47:42;;;;;;;286.63;110.43;;;0.40;1638.40;;;;;;5076142;28;20029;-60
2022/01/24 09:50:10;;;;;;;361.38;143.50;;;0.40;1612.80;;;;;;5076349;28;20031;-60
2022/01/24 09:52:40;;;;;;;552.95;255.77;;;0.50;1638.40;;;;;;5076110;28;20445;-60
2022/01/24 09:55:07;;;;;;;481.13;221.27;;;0.60;1638.40;;;;;;5076771;28;20370;-60
2022/01/24 09:57:33;;;;;;;392.90;167.13;;;0.60;1612.80;;;;;;5076290;28;20074;-60
2022/01/24 09:59:59;;;;;;;446.25;197.10;;;0.60;1612.80;;;;;;5075737;28;20052;-60
2022/01/24 10:02:26;;;;;;;325.42;141.25;;;0.70;1638.40;;;;;;5075602;28;20020;-60
2022/01/24 10:05:10;;;;;;;286.33;132.48;;;0.80;1638.40;;;;;;5075910;28;20025;-60
2022/01/24 10:07:39;;;;;;;241.27;107.60;;;0.90;1612.80;;;;;;5076011;28;20428;-60
2022/01/24 10:10:05;;;;;;;154.43;72.30;;;25.60;1638.40;;;;;;5076089;28;20028;-60
2022/01/24 10:17:54;;;;;;;103.50;43.80;;;25.70;1612.80;;;;;;5075963;28;19912;-60
2022/01/24 10:20:20;;;;;;;84.72;38.92;;;25.70;1612.80;;;;;;5075483;28;20032;-60
2022/01/24 10:23:09;;;;;;;78.95;37.60;;;25.80;1587.20;;;;;;5075741;28;20033;-60
2022/01/24 10:25:48;;;;;;;68.72;33.13;;;25.90;1612.80;;;;;;5075471;28;20032;-60
2022/01/24 10:28:30;;;;;;;67.25;30.83;;;25.90;1587.20;;;;;;5075326;28;20523;-60
2022/01/24 10:31:06;;;;;;;62.53;30.95;;;25.90;1587.20;;;;;;5075529;28;20107;-60
2022/01/24 10:34:06;;;;;;;69.38;31.92;;;26.00;1587.20;;;;;;5075587;28;20075;-60
2022/01/24 10:36:45;;;;;;;61.45;29.23;;;26.10;1612.80;;;;;;5075487;28;20032;-60
2022/01/24 10:39:15;;;;;;;50.13;24.92;;;26.20;1587.20;;;;;;5075455;28;20029;-60
2022/01/24 10:44:14;;;;;;;42.92;21.77;;;26.30;1587.20;;;;;;5075263;28;20121;-60
2022/01/24 10:46:39;;;;;;;40.80;21.77;;;26.30;1561.60;;;;;;5075236;28;20043;-60
2022/01/24 10:49:09;;;;;;;38.25;21.30;;;26.40;1561.60;;;;;;5075273;28;20478;-60
2022/01/24 10:51:46;;;;;;;41.28;21.90;;;26.50;1561.60;;;;;;5074975;28;20028;-60
2022/01/24 10:54:26;;;;;;;43.97;21.08;;;26.40;1561.60;;;;;;5075012;28;20119;-60
2022/01/24 10:56:53;;;;;;;41.25;20.42;;;26.50;1587.20;;;;;;5074412;28;20115;-60
2022/01/24 10:59:21;;;;;;;37.65;20.58;;;51.20;1612.80;;;;;;5073887;28;20127;-60
2022/01/24 11:01:56;;;;;;;43.63;23.05;;;51.20;1587.20;;;;;;5074600;28;20033;-60
2022/01/24 11:04:26;;;;;;;39.95;21.67;;;51.30;1612.80;;;;;;5074928;28;20121;-60
2022/01/24 11:06:58;;;;;;;40.97;20.42;;;51.40;1587.20;;;;;;5074726;28;20033;-60
2022/01/24 11:09:29;;;;;;;39.80;20.52;;;51.30;1561.60;;;;;;5074750;28;20039;-60
2022/01/24 11:12:00;;;;;;;36.67;18.60;;;51.40;1587.20;;;;;;5074764;28;20055;-60
2022/01/24 11:14:27;;;;;;;42.40;20.65;;;51.40;1587.20;;;;;;5074581;28;20027;-60
2022/01/24 11:16:55;;;;;;;67.80;36.33;;;51.40;1587.20;;;;;;5074703;28;20055;-60
2022/01/24 11:19:40;;;;;;;;;;;;;;;;;;;;;
2022/01/24 11:21:54;;;;;;;158.68;72.30;;;51.50;1587.20;;;;;;5074559;28;20021;-60
2022/01/24 11:24:27;;;;;;;102.03;48.38;;;51.50;1587.20;;;;;;5074514;28;20038;-60
2022/01/24 11:26:54;;;;;;;78.45;39.70;;;51.60;1612.80;;;;;;5074212;28;20031;-60
2022/01/24 11:29:20;;;;;;;74.00;39.00;;;51.70;1612.80;;;;;;5074367;28;20523;-60
2022/01/24 11:32:05;;;;;;;96.45;48.75;;;51.70;1587.20;;;;;;5073961;28;20038;-60
2022/01/24 11:34:35;;;;;;;127.55;66.63;;;51.70;1561.60;;;;;;5074286;28;20029;-60
2022/01/24 11:37:03;;;;;;;99.80;51.03;;;51.70;1587.20;;;;;;5074245;28;20542;-60
2022/01/24 11:39:28;;;;;;;66.57;37.70;;;51.80;1561.60;;;;;;5073919;28;20052;-60
2022/01/24 11:41:55;;;;;;;71.32;36.60;;;51.80;1561.60;;;;;;5074465;28;20036;-60
2022/01/24 11:44:22;;;;;;;65.40;35.85;;;51.80;1561.60;;;;;;5074029;28;20119;-60
2022/01/24 11:46:52;;;;;;;62.00;31.88;;;51.90;1561.60;;;;;;5074198;28;20055;-60
2022/01/24 11:49:19;;;;;;;50.13;27.38;;;51.90;1536.00;;;;;;5074209;28;20032;-60
2022/01/24 11:51:49;;;;;;;46.38;25.48;;;51.90;1536.00;;;;;;5074249;28;20362;-60
2022/01/24 11:54:47;;;;;;;41.08;22.92;;;51.90;1561.60;;;;;;5073997;28;20040;-60
2022/01/24 11:57:26;;;;;;;38.88;21.23;;;52.00;1561.60;;;;;;5074211;28;20425;-60
2022/01/24 12:00:12;;;;;;;35.50;20.02;;;52.10;1536.00;;;;;;5073734;28;20040;-60
2022/01/24 12:02:40;;;;;;;39.38;22.02;;;52.10;1561.60;;;;;;5051645;28;20406;-60
2022/01/24 12:05:13;;;;;;;34.95;19.30;;;52.10;1561.60;;;;;;5051713;28;20382;-60
2022/01/24 12:07:52;;;;;;;28.52;17.08;;;52.10;1536.00;;;;;;5050885;28;20048;-60
2022/01/24 12:10:23;;;;;;;33.50;19.10;;;52.10;1561.60;;;;;;5051677;28;20032;-60
2022/01/24 12:12:56;;;;;;;42.42;21.40;;;76.80;1561.60;;;;;;5051502;28;20021;-61
2022/01/24 12:15:37;;;;;;;94.10;43.80;;;76.80;1510.40;;;;;;5051605;28;20029;-60
2022/01/24 12:18:16;;;;;;;81.82;38.45;;;76.80;1536.00;;;;;;5051583;28;20514;-60
2022/01/24 12:20:42;;;;;;;127.57;53.65;;;76.80;1510.40;;;;;;5051629;28;20037;-60
2022/01/24 12:23:16;;;;;;;115.32;48.08;;;76.80;1510.40;;;;;;5051339;28;20043;-60
2022/01/24 12:25:54;;;;;;;80.85;37.92;;;76.90;1510.40;;;;;;5051159;28;20033;-60
2022/01/24 12:28:24;;;;;;;56.40;28.45;;;76.90;1510.40;;;;;;5051296;28;20064;-60
2022/01/24 12:30:56;;;;;;;51.47;27.08;;;76.90;1510.40;;;;;;5051580;28;20036;-60
2022/01/24 12:33:50;;;;;;;83.07;40.10;;;77.00;1510.40;;;;;;5051458;28;20040;-60
2022/01/24 12:36:36;;;;;;;125.70;61.88;;;76.90;1484.80;;;;;;4972542;28;20037;-60
2022/01/24 12:39:13;;;;;;;72.50;36.53;;;76.90;1510.40;;;;;;4980936;28;20030;-60
2022/01/24 12:41:45;;;;;;;47.50;25.70;;;77.00;1484.80;;;;;;5011554;28;20365;-61
2022/01/24 12:46:17;;;;;;;39.53;21.45;;;77.00;1484.80;;;;;;5011539;28;20022;-61
2022/01/24 12:46:57;;;;;;;33.83;18.13;;;77.00;1484.80;;;;;;5011608;28;20129;-60
2022/01/24 12:49:26;;;;;;;25.88;15.52;;;77.00;1459.20;;;;;;5011769;28;20117;-60
2022/01/24 12:51:52;;;;;;;30.73;16.83;;;77.00;1459.20;;;;;;5011970;28;20452;-60
2022/01/24 12:54:17;;;;;;;30.42;17.23;;;77.10;1459.20;;;;;;5011673;28;20068;-60
2022/01/24 12:56:44;;;;;;;29.83;16.02;;;77.10;1459.20;;;;;;5011541;28;20093;-60
2022/01/24 12:59:11;;;;;;;30.42;16.77;;;77.10;1459.20;;;;;;5011355;28;20046;-60
2022/01/24 13:01:38;;;;;;;30.40;15.82;;;77.10;1459.20;;;;;;5011340;28;20092;-60
2022/01/24 13:04:12;;;;;;;33.92;18.27;;;77.10;1459.20;;;;;;4994662;28;20083;-60
2022/01/24 13:06:44;;;;;;;24.52;14.88;;;77.10;1459.20;;;;;;5011408;28;20121;-60
2022/01/24 13:09:19;;;;;;;28.10;14.50;;;77.10;1433.60;;;;;;5011442;28;20030;-60
2022/01/24 13:11:47;;;;;;;27.23;15.95;;;77.00;1433.60;;;;;;5011168;28;20032;-60
2022/01/24 13:14:30;;;;;;;36.72;19.08;;;77.10;1433.60;;;;;;5073003;28;20451;-60
2022/01/24 13:25:22;;;;;;;38.95;21.13;;;77.00;1408.00;;;;;;5076841;28;20036;-60
2022/01/24 13:27:51;;;;;;;38.25;19.80;;;77.00;1433.60;;;;;;5076151;28;20082;-61
2022/01/24 13:30:24;;;;;;;176.38;81.43;;;77.00;1408.00;;;;;;5065782;28;20029;-60
2022/01/24 13:32:52;;;;;;;342.83;156.70;;;77.00;1433.60;;;;;;5065913;28;20082;-60
2022/01/24 13:35:36;;;;;;;287.67;134.77;;;77.10;1459.20;;;;;;5064484;28;20446;-60
2022/01/24 13:38:09;;;;;;;173.23;88.78;;;77.10;1433.60;;;;;;5067081;28;20029;-61
2022/01/24 13:40:54;;;;;;;117.28;55.50;;;77.10;1459.20;;;;;;5049107;28;20033;-60
2022/01/24 13:43:35;;;;;;;94.97;44.78;;;77.10;1459.20;;;;;;5056300;28;20025;-60
2022/01/24 13:46:22;;;;;;;95.47;44.33;;;77.10;1459.20;;;;;;5055757;28;20163;-60
2022/01/24 13:48:58;;;;;;;67.82;34.78;;;77.10;1484.80;;;;;;5055662;28;20052;-60
2022/01/24 13:51:49;;;;;;;79.97;40.15;;;77.00;1459.20;;;;;;5056028;28;20020;-60
2022/01/24 13:54:26;;;;;;;80.18;40.72;;;77.00;1433.60;;;;;;5055909;28;20037;-60
2022/01/24 13:57:00;;;;;;;90.07;41.15;;;77.00;1433.60;;;;;;5055660;28;20033;-65
2022/01/24 13:59:26;;;;;;;86.15;40.88;;;77.00;1433.60;;;;;;5055528;28;20045;-60
2022/01/24 14:01:54;;;;;;;66.40;33.63;;;77.00;1408.00;;;;;;5055747;28;20051;-61
2022/01/24 14:04:38;;;;;;;73.70;34.58;;;77.00;1433.60;;;;;;5055822;28;20030;-60
2022/01/24 14:07:15;;;;;;;79.18;39.95;;;77.00;1382.40;;;;;;5054401;28;20041;-60
2022/01/24 14:10:00;;;;;;;78.97;39.45;;;77.00;1382.40;;;;;;5061069;28;20025;-60
2022/01/24 14:12:38;;;;;;;116.10;65.22;;;76.90;1382.40;;;;;;5069277;28;20025;-60